Terminal Aerodrome Forecast
Issued by NWS

Home | Current Version | Previous Version | Text Only | Print | Product List | Glossary On
Versions: 1 2 3 4 5 6 7 8 9 10 11 12 13 14 15 16
000
FTAK31 PAJN 300500 RRA
TAFAYA
TAF
PAYA 300541Z 3006/3106 09007KT P6SM -SHRA SCT015 OVC030
      TEMPO 3006/3010 4SM SHRA BR BKN012
     FM301000 08005KT P6SM VCSH FEW015 BKN035 OVC060
     FM301500 06004KT P6SM SCT045 BKN080
     FM302000 09006KT P6SM -SHRA SCT030 OVC045
     FM310200 06004KT P6SM VCSH SCT045 BKN070
      AMD LTD TO CLD VIS AND WIND 3006/3010=

USA.gov is the U.S. government's official web portal to all federal, state and local government web resources and services.